Ronald, WA (98940)

8:47 AM PDT on September 22, 2014 (GMT -0700)
Pineloch Sun 2 | Change Station
CLOSE
Current Station
Personal Weather Station
Location: Ronald, WA
Elevation: 2612 ft
Nearby Weather Stations

Elev 2612 ft 47.25 °N, 121.05 °W | Updated 0 second ago

Overcast
Overcast
61.4 °F
Feels Like 61.4 °F
N
0.0
Wind Variable Wind from SW
Gusts 1.0 mph

Today
High -- | Low -- °F
--% Chance of Precip.
Yesterday
High -- | Low -- °F
Precip. -- in
6:51 AM 7:01 PM
Waning Crescent, 2% visible
Pressure 29.87 in
Visibility 10.0 miles
Clouds Clear
Dew Point 56 °F
Humidity 81%
Rainfall 0.00 in
Snow Depth 0 in , 0 in , 1 in
UV 0 out of 12
Pollen 3.00 out of 12
Air Quality Not available.
Flu Activity Not available.
METAR KELN 221453Z AUTO 07006KT 10SM CLR 17/11 A2989 RMK AO2 SLP113 T01670111 53002

More Conditions Fewer Conditions

Pressure 29.87 in
Visibility 10.0 miles
Clouds Clear
Dew Point 56 °F
Humidity 81%
Rainfall 0.00 in
Snow Depth 0 in , 0 in , 1 in
UV 0 out of 12
Pollen 3.00 out of 12
Air Quality Not available.
Flu Activity Not available.
METAR KELN 221453Z AUTO 07006KT 10SM CLR 17/11 A2989 RMK AO2 SLP113 T01670111 53002

More Conditions Fewer Conditions

10-Day Weather Forecast

Almanac

Astronomy

Sep. 22, 2014 Rise Set
Actual Time 6:51 AM PDT 7:01 PM PDT
Civil Twilight 6:20 AM PDT 7:32 PM PDT
Nautical Twilight 5:44 AM PDT 8:07 PM PDT
Astronomical Twilight 5:07 AM PDT 8:44 PM PDT
Moon 5:20 AM PDT 6:13 PM PDT
Length of Visible Light 13h 11m
Length of Day
12h 10m
Tomorrow will be 3m 22s shorter.
Waning Crescent, 2% of the Moon is Illuminated
Today
Waning Crescent
Sep 24
New
Oct 1
First Quarter
Oct 8
Full
Oct 15
Last Quarter

Today's Extremes

State Highs State Lows

Community

WunderPhotos

Upload Photos

1,755,467 photos uploaded!

Nearby

Snow Depth

Station Depth Elevation
Lone Pine 0 in 3800 ft
Mount Gardner 0 in 3000 ft
Quartz Peak 1 in 4700 ft
Pigtail Peak 0 in 5900 ft
Spencer Meadow 0 in 3400 ft

Earthquake Activity

City Distance Mag. Time & Date
No recent earthquake activity has been reported nearby.
Minimum magnitude displayed is 2.5.

Coastal Water Temperatures

Place Temperature
No Stations Reporting

Nearby Weather Stations